createdAt,value
2023-05-05T00:00:23.117Z,100385.25
2023-05-05T00:02:51.841Z,100378.97
2023-05-05T00:05:20.352Z,100380.38
2023-05-05T00:07:48.553Z,100383.13
2023-05-05T00:10:17.317Z,100387.72
2023-05-05T00:12:45.674Z,100378.81
2023-05-05T00:15:13.879Z,100378.72
2023-05-05T00:17:42.268Z,100378.81
2023-05-05T00:20:10.782Z,100383.56
2023-05-05T00:22:38.955Z,100384.56
2023-05-05T00:25:07.733Z,100373.72
2023-05-05T00:27:36.988Z,100381.56
2023-05-05T00:30:07.192Z,100380.59
2023-05-05T00:32:36.554Z,100381.44
2023-05-05T00:35:05.494Z,100379.91
2023-05-05T00:37:33.743Z,100379.78
2023-05-05T00:40:02.201Z,100369.91
2023-05-05T00:42:42.443Z,100382.81
2023-05-05T00:45:12.337Z,100383.63
2023-05-05T00:47:43.406Z,100377.19
2023-05-05T00:50:21.640Z,100372.81
2023-05-05T00:52:51.184Z,100370.44
2023-05-05T00:55:20.595Z,100374.84
2023-05-05T00:57:49.750Z,100375.91
2023-05-05T01:00:18.126Z,100374.22
2023-05-05T01:02:47.001Z,100362.75
2023-05-05T01:05:17.161Z,100373.66
2023-05-05T01:08:20.953Z,100373.41
2023-05-05T01:10:55.095Z,100371.12
2023-05-05T01:13:42.927Z,100372.50
2023-05-05T01:16:32.199Z,100364.28
2023-05-05T01:19:38.359Z,100357.31
2023-05-05T01:22:11.917Z,100364.69
2023-05-05T01:24:43.459Z,100366.97
2023-05-05T01:27:48.070Z,100364.94
2023-05-05T01:30:38.340Z,100369.03
2023-05-05T01:33:10.613Z,100366.69
2023-05-05T01:35:45.901Z,100363.09
2023-05-05T01:38:21.696Z,100361.44
2023-05-05T01:40:57.358Z,100359.59
2023-05-05T01:43:29.586Z,100365.78
2023-05-05T01:45:59.426Z,100357.53
2023-05-05T01:48:29.920Z,100356.97
2023-05-05T01:51:00.742Z,100365.16
2023-05-05T01:53:30.245Z,100357.81
2023-05-05T01:55:59.023Z,100355.69
2023-05-05T01:58:30.268Z,100355.69
2023-05-05T02:01:00.352Z,100356.78
2023-05-05T02:03:32.112Z,100354.75
2023-05-05T02:06:01.728Z,100354.19
2023-05-05T02:08:31.619Z,100348.25
2023-05-05T02:11:01.243Z,100357.00
2023-05-05T02:13:34.814Z,100359.28
2023-05-05T02:16:06.224Z,100343.94
2023-05-05T02:18:36.427Z,100349.19
2023-05-05T02:21:05.114Z,100343.22
2023-05-05T02:23:33.982Z,100351.88
2023-05-05T02:26:07.829Z,100355.91
2023-05-05T02:28:48.644Z,100348.56
2023-05-05T02:31:22.781Z,100357.31
2023-05-05T02:33:53.561Z,100354.50
2023-05-05T02:36:26.053Z,100356.88
2023-05-05T02:39:02.203Z,100350.16
2023-05-05T02:41:34.799Z,100352.63
2023-05-05T02:44:06.714Z,100350.09
2023-05-05T02:46:37.239Z,100351.34
2023-05-05T02:49:05.346Z,100351.34
2023-05-05T02:51:34.086Z,100345.31
2023-05-05T02:54:03.566Z,100351.34
2023-05-05T02:56:31.694Z,100349.37
2023-05-05T02:59:16.476Z,100349.19
2023-05-05T03:01:51.543Z,100348.56
2023-05-05T03:04:35.361Z,100351.72
2023-05-05T03:07:10.993Z,100343.91
2023-05-05T03:10:05.554Z,100344.06
2023-05-05T03:13:07.879Z,100347.72
2023-05-05T03:15:43.296Z,100345.25
2023-05-05T03:18:15.669Z,100350.50
2023-05-05T03:20:44.834Z,100342.47
2023-05-05T03:23:14.648Z,100335.63
2023-05-05T03:25:47.886Z,100337.97
2023-05-05T03:28:18.068Z,100338.84
2023-05-05T03:30:46.314Z,100340.72
2023-05-05T03:33:16.597Z,100335.50
2023-05-05T03:35:45.135Z,100337.72
2023-05-05T03:38:13.713Z,100338.47
2023-05-05T03:40:44.636Z,100346.06
2023-05-05T03:43:15.524Z,100333.25
2023-05-05T03:45:44.356Z,100345.84
2023-05-05T03:48:12.694Z,100342.66
2023-05-05T03:50:41.258Z,100349.94
2023-05-05T03:53:10.514Z,100351.03
2023-05-05T03:55:39.439Z,100357.50
2023-05-05T03:58:07.953Z,100346.56
2023-05-05T04:00:36.644Z,100358.34
2023-05-05T04:03:05.244Z,100353.94
2023-05-05T04:05:33.594Z,100347.16
2023-05-05T04:08:03.357Z,100353.31
2023-05-05T04:10:32.274Z,100362.63
2023-05-05T04:13:01.739Z,100358.25
2023-05-05T04:15:31.004Z,100360.28
2023-05-05T04:17:59.677Z,100367.88
2023-05-05T04:20:28.497Z,100355.91
2023-05-05T04:22:57.863Z,100362.06
2023-05-05T04:25:26.323Z,100368.59
2023-05-05T04:27:54.742Z,100364.09
2023-05-05T04:30:23.773Z,100367.84
2023-05-05T04:32:52.346Z,100366.09
2023-05-05T04:35:20.983Z,100369.03
2023-05-05T04:37:49.876Z,100375.81
2023-05-05T04:40:18.638Z,100375.87
2023-05-05T04:42:47.074Z,100378.12
2023-05-05T04:45:15.569Z,100379.34
2023-05-05T04:47:44.164Z,100384.88
2023-05-05T04:50:12.566Z,100379.34
2023-05-05T04:52:41.482Z,100381.53
2023-05-05T04:55:10.744Z,100385.22
2023-05-05T04:57:39.219Z,100379.31
2023-05-05T05:00:08.974Z,100391.16
2023-05-05T05:02:37.868Z,100386.31
2023-05-05T05:05:06.602Z,100395.91
2023-05-05T05:07:34.789Z,100395.50
2023-05-05T05:10:03.841Z,100393.09
2023-05-05T05:12:33.454Z,100386.81
2023-05-05T05:15:01.871Z,100392.63
2023-05-05T05:17:31.404Z,100394.69
2023-05-05T05:20:04.816Z,100398.16
2023-05-05T05:22:34.883Z,100408.44
2023-05-05T05:25:03.676Z,100402.16
2023-05-05T05:27:32.150Z,100395.03
2023-05-05T05:30:00.665Z,100406.25
2023-05-05T05:32:29.638Z,100398.16
2023-05-05T05:34:57.908Z,100402.00
2023-05-05T05:37:31.020Z,100394.69
2023-05-05T05:39:59.888Z,100410.22
2023-05-05T05:42:28.477Z,100416.63
2023-05-05T05:44:58.723Z,100402.72
2023-05-05T05:47:27.236Z,100410.75
2023-05-05T05:49:56.598Z,100417.59
2023-05-05T05:52:25.071Z,100416.16
2023-05-05T05:54:53.391Z,100411.84
2023-05-05T05:57:23.772Z,100411.22
2023-05-05T05:59:52.342Z,100412.94
2023-05-05T06:02:21.030Z,100406.69
2023-05-05T06:04:49.686Z,100414.84
2023-05-05T06:07:18.199Z,100411.75
2023-05-05T06:09:46.757Z,100416.34
2023-05-05T06:12:16.357Z,100418.28
2023-05-05T06:14:44.886Z,100412.19
2023-05-05T06:17:13.168Z,100417.06
2023-05-05T06:19:43.420Z,100219.22
2023-05-05T06:22:11.896Z,100417.66
2023-05-05T06:24:40.381Z,100411.66
2023-05-05T06:27:09.354Z,100411.91
2023-05-05T06:29:37.572Z,100407.69
2023-05-05T06:32:08.518Z,100410.03
2023-05-05T06:34:36.968Z,100403.47
2023-05-05T06:37:05.472Z,100414.97
2023-05-05T06:39:33.798Z,100416.81
2023-05-05T06:42:04.184Z,100406.13
2023-05-05T06:44:34.660Z,100403.06
2023-05-05T06:47:03.818Z,100400.44
2023-05-05T06:49:32.177Z,100401.81
2023-05-05T06:52:00.565Z,100406.94
2023-05-05T06:54:29.344Z,100406.31
2023-05-05T06:56:59.689Z,100411.25
2023-05-05T06:59:28.208Z,100403.53
2023-05-05T07:01:56.961Z,100413.25
2023-05-05T07:04:24.982Z,100409.56
2023-05-05T07:06:55.389Z,100417.13
2023-05-05T07:09:24.287Z,100411.88
2023-05-05T07:11:52.926Z,100402.69
2023-05-05T07:14:24.347Z,100407.75
2023-05-05T07:16:53.212Z,100408.22
2023-05-05T07:19:21.366Z,100402.69
2023-05-05T07:21:49.879Z,100401.38
2023-05-05T07:24:18.804Z,100404.56
2023-05-05T07:26:46.907Z,100412.25
2023-05-05T07:29:15.250Z,100407.41
2023-05-05T07:31:43.856Z,100404.09
2023-05-05T07:34:12.338Z,100407.28
2023-05-05T07:36:41.083Z,100411.69
2023-05-05T07:39:09.810Z,100407.31
2023-05-05T07:41:38.091Z,100408.91
2023-05-05T07:44:06.577Z,100412.12
2023-05-05T07:46:35.203Z,100400.88
2023-05-05T07:49:03.794Z,100399.19
2023-05-05T07:51:34.396Z,100399.91
2023-05-05T07:54:03.310Z,100406.31
2023-05-05T07:56:31.863Z,100401.12
2023-05-05T07:59:00.662Z,100406.78
2023-05-05T08:01:29.168Z,100398.41
2023-05-05T08:03:57.834Z,100396.53
2023-05-05T08:06:28.023Z,100405.91
2023-05-05T08:08:56.200Z,100406.22
2023-05-05T08:11:27.780Z,100399.47
2023-05-05T08:13:59.025Z,100402.66
2023-05-05T08:16:27.771Z,100409.25
2023-05-05T08:18:56.293Z,100409.25
2023-05-05T08:21:24.595Z,100397.66
2023-05-05T08:23:54.165Z,100401.66
2023-05-05T08:26:22.895Z,100411.09
2023-05-05T08:28:55.387Z,100402.31
2023-05-05T08:31:23.820Z,100403.91
2023-05-05T08:33:52.119Z,100399.03
2023-05-05T08:36:20.489Z,100395.56
2023-05-05T08:38:48.951Z,100399.31
2023-05-05T08:41:19.938Z,100393.25
2023-05-05T08:43:49.448Z,100399.66
2023-05-05T08:46:18.096Z,100391.66
2023-05-05T08:48:48.635Z,100397.31
2023-05-05T08:51:19.740Z,100397.81
2023-05-05T08:53:54.074Z,100392.19
2023-05-05T08:56:22.466Z,100388.00
2023-05-05T08:58:51.725Z,100396.25
2023-05-05T09:01:21.087Z,100392.56
2023-05-05T09:03:50.366Z,100387.00
2023-05-05T09:06:21.331Z,100384.62
2023-05-05T09:08:50.708Z,100379.94
2023-05-05T09:11:19.032Z,100381.19
2023-05-05T09:13:47.550Z,100365.22
2023-05-05T09:16:16.399Z,100377.38
2023-05-05T09:18:45.732Z,100370.25
2023-05-05T09:21:22.309Z,100373.25
2023-05-05T09:24:09.611Z,100370.59
2023-05-05T09:26:42.560Z,100360.03
2023-05-05T09:29:19.592Z,100364.53
2023-05-05T09:32:11.204Z,100349.59
2023-05-05T09:34:40.599Z,100359.53
2023-05-05T09:37:08.909Z,100351.59
2023-05-05T09:39:37.018Z,100350.13
2023-05-05T09:42:06.523Z,100352.87
2023-05-05T09:44:36.428Z,100357.22
2023-05-05T09:47:07.329Z,100347.81
2023-05-05T09:49:40.797Z,100345.44
2023-05-05T09:52:16.622Z,100342.16
2023-05-05T09:54:45.765Z,100340.53
2023-05-05T09:57:47.469Z,100340.69
2023-05-05T10:00:16.611Z,100334.22
2023-05-05T10:02:45.600Z,100337.06
2023-05-05T10:05:15.401Z,100345.44
2023-05-05T10:07:45.267Z,100337.62
2023-05-05T10:10:18.211Z,100334.47
2023-05-05T10:12:48.132Z,100337.78
2023-05-05T10:15:17.175Z,100340.06
2023-05-05T10:18:06.165Z,100332.34
2023-05-05T10:20:38.204Z,100341.44
2023-05-05T10:23:10.637Z,100324.66
2023-05-05T10:25:54.869Z,100332.31
2023-05-05T10:28:34.448Z,100328.91
2023-05-05T10:31:19.953Z,100326.81
2023-05-05T10:34:09.227Z,100317.78
2023-05-05T10:36:39.216Z,100314.22
2023-05-05T10:39:09.499Z,100293.78
2023-05-05T10:41:39.071Z,100298.94
2023-05-05T10:44:07.938Z,100305.00
2023-05-05T10:46:36.497Z,100286.69
2023-05-05T10:49:35.512Z,100286.91
2023-05-05T10:52:06.795Z,100290.88
2023-05-05T10:54:43.531Z,100283.78
2023-05-05T10:57:12.346Z,100287.81
2023-05-05T10:59:41.935Z,100280.53
2023-05-05T11:02:21.341Z,100279.84
2023-05-05T11:05:09.523Z,100281.13
2023-05-05T11:07:38.318Z,100274.37
2023-05-05T11:10:14.529Z,100275.03
2023-05-05T11:13:03.229Z,100263.34
2023-05-05T11:15:31.653Z,100263.91
2023-05-05T11:18:05.815Z,100259.03
2023-05-05T11:20:36.516Z,100256.84
2023-05-05T11:23:05.164Z,100253.84
2023-05-05T11:25:36.900Z,100250.97
2023-05-05T11:28:14.482Z,100246.44
2023-05-05T11:31:00.766Z,100245.94
2023-05-05T11:33:29.976Z,100256.25
2023-05-05T11:35:57.866Z,100247.34
2023-05-05T11:38:40.107Z,100248.28
2023-05-05T11:41:26.870Z,100246.31
2023-05-05T11:44:14.948Z,100240.25
2023-05-05T11:46:52.413Z,100236.31
2023-05-05T11:49:33.990Z,100228.53
2023-05-05T11:52:06.211Z,100229.81
2023-05-05T11:54:40.658Z,100227.22
2023-05-05T11:57:09.136Z,100223.69
2023-05-05T11:59:59.365Z,100221.97
2023-05-05T12:02:29.573Z,100216.94
2023-05-05T12:05:00.195Z,100217.50
2023-05-05T12:07:31.196Z,100213.31
2023-05-05T12:10:01.183Z,100215.53
2023-05-05T12:12:40.282Z,100214.16
2023-05-05T12:15:09.717Z,100214.03
2023-05-05T12:17:39.760Z,100209.59
2023-05-05T12:20:11.006Z,100212.25
2023-05-05T12:22:40.663Z,100219.97
2023-05-05T12:25:10.070Z,100208.88
2023-05-05T12:27:39.034Z,100199.69
2023-05-05T12:30:17.885Z,100202.25
2023-05-05T12:32:46.722Z,100197.16
2023-05-05T12:35:16.043Z,100197.19
2023-05-05T12:37:44.581Z,100204.19
2023-05-05T12:40:45.211Z,100194.34
2023-05-05T12:43:29.570Z,100198.97
2023-05-05T12:46:06.506Z,100189.72
2023-05-05T12:48:38.190Z,100188.63
2023-05-05T12:51:17.520Z,100185.53
2023-05-05T12:53:49.661Z,100185.06
2023-05-05T12:56:36.479Z,100190.31
2023-05-05T12:59:09.807Z,100183.81
2023-05-05T13:01:48.664Z,100174.03
2023-05-05T13:04:16.915Z,100176.09
2023-05-05T13:06:50.240Z,100179.31
2023-05-05T13:09:35.936Z,100165.50
2023-05-05T13:12:05.272Z,100167.53
2023-05-05T13:14:34.156Z,100157.75
2023-05-05T13:17:02.342Z,100156.34
2023-05-05T13:19:31.258Z,100154.44
2023-05-05T13:22:00.018Z,100151.50
2023-05-05T13:24:38.563Z,100149.66
2023-05-05T13:27:12.072Z,100139.22
2023-05-05T13:29:41.584Z,100137.94
2023-05-05T13:32:09.750Z,100137.12
2023-05-05T13:34:39.599Z,100128.44
2023-05-05T13:37:08.709Z,100131.13
2023-05-05T13:39:37.045Z,100126.59
2023-05-05T13:42:05.792Z,100125.78
2023-05-05T13:44:35.370Z,100117.84
2023-05-05T13:47:03.739Z,100111.75
2023-05-05T13:49:33.043Z,100120.44
2023-05-05T13:52:02.810Z,100110.81
2023-05-05T13:54:31.001Z,100108.94
2023-05-05T13:57:00.640Z,100112.31
2023-05-05T13:59:28.917Z,100110.66
2023-05-05T14:01:57.129Z,100116.81
2023-05-05T14:04:26.023Z,100112.63
2023-05-05T14:06:54.650Z,100113.56
2023-05-05T14:09:22.869Z,100105.37
2023-05-05T14:11:51.581Z,100110.19
2023-05-05T14:14:21.171Z,100111.87
2023-05-05T14:16:50.387Z,100106.44
2023-05-05T14:19:19.156Z,100097.41
2023-05-05T14:21:47.448Z,100099.81
2023-05-05T14:24:15.678Z,100095.56
2023-05-05T14:26:44.262Z,100094.19
2023-05-05T14:29:13.133Z,100100.31
2023-05-05T14:31:41.285Z,100096.06
2023-05-05T14:34:10.152Z,100090.94
2023-05-05T14:36:38.386Z,100092.22
2023-05-05T14:39:06.885Z,100084.84
2023-05-05T14:41:35.703Z,100085.00
2023-05-05T14:44:03.879Z,100085.84
2023-05-05T14:46:32.296Z,100077.63
2023-05-05T14:49:00.888Z,100085.22
2023-05-05T14:51:29.090Z,100082.06
2023-05-05T14:53:58.087Z,100085.84
2023-05-05T14:56:26.673Z,100085.75
2023-05-05T14:58:55.330Z,100083.81
2023-05-05T15:01:25.789Z,100069.12
2023-05-05T15:03:54.876Z,100073.50
2023-05-05T15:06:23.254Z,100079.19
2023-05-05T15:08:51.701Z,100075.53
2023-05-05T15:11:22.086Z,100082.75
2023-05-05T15:13:50.611Z,100078.06
2023-05-05T15:16:18.774Z,100078.56
2023-05-05T15:18:47.449Z,100069.84
2023-05-05T15:21:15.841Z,100073.75
2023-05-05T15:23:43.874Z,100072.50
2023-05-05T15:26:12.799Z,100077.41
2023-05-05T15:28:41.282Z,100072.97
2023-05-05T15:31:10.619Z,100069.12
2023-05-05T15:33:39.829Z,100071.78
2023-05-05T15:36:08.593Z,100072.56
2023-05-05T15:38:42.497Z,100068.53
2023-05-05T15:41:11.284Z,100069.19
2023-05-05T15:43:39.210Z,100068.22
2023-05-05T15:46:07.507Z,100067.37
2023-05-05T15:48:36.212Z,100067.22
2023-05-05T15:51:04.909Z,100068.66
2023-05-05T15:53:33.164Z,100064.44
2023-05-05T15:56:02.655Z,100065.88
2023-05-05T15:58:30.915Z,100058.78
2023-05-05T16:00:59.326Z,100058.78
2023-05-05T16:03:27.986Z,100058.38
2023-05-05T16:05:56.193Z,100054.53
2023-05-05T16:08:24.592Z,100062.09
2023-05-05T16:10:53.055Z,100055.19
2023-05-05T16:13:21.460Z,100052.12
2023-05-05T16:15:49.893Z,100054.00
2023-05-05T16:18:19.202Z,100050.34
2023-05-05T16:20:47.411Z,100048.53
2023-05-05T16:23:15.662Z,100045.09
2023-05-05T16:25:44.798Z,100052.00
2023-05-05T16:28:13.269Z,100040.84
2023-05-05T16:30:43.530Z,100044.09
2023-05-05T16:33:12.284Z,100045.50
2023-05-05T16:35:40.518Z,100049.78
2023-05-05T16:38:09.300Z,100051.00
2023-05-05T16:40:37.946Z,100044.50
2023-05-05T16:43:06.435Z,100040.84
2023-05-05T16:45:34.578Z,100050.19
2023-05-05T16:48:03.367Z,100043.47
2023-05-05T16:50:31.712Z,100033.72
2023-05-05T16:52:59.816Z,100040.00
2023-05-05T16:55:28.411Z,100043.28
2023-05-05T16:57:56.524Z,100040.03
2023-05-05T17:00:24.763Z,100037.59
2023-05-05T17:02:53.727Z,100040.22
2023-05-05T17:05:21.864Z,100045.28
2023-05-05T17:08:03.285Z,100037.53
2023-05-05T17:10:32.144Z,100032.44
2023-05-05T17:13:00.300Z,100043.78
2023-05-05T17:15:28.965Z,100034.19
2023-05-05T17:17:57.287Z,100031.94
2023-05-05T17:20:25.624Z,100034.09
2023-05-05T17:22:54.658Z,100035.31
2023-05-05T17:25:23.144Z,100041.94
2023-05-05T17:27:51.285Z,100041.47
2023-05-05T17:30:19.584Z,100041.22
2023-05-05T17:32:48.757Z,100042.56
2023-05-05T17:35:16.891Z,100044.72
2023-05-05T17:37:45.461Z,100043.59
2023-05-05T17:40:13.991Z,100041.53
2023-05-05T17:42:42.328Z,100036.47
2023-05-05T17:45:11.814Z,100040.56
2023-05-05T17:47:40.410Z,100046.03
2023-05-05T17:50:10.851Z,100047.47
2023-05-05T17:52:40.752Z,100043.34
2023-05-05T17:55:09.772Z,100045.59
2023-05-05T17:57:38.481Z,100048.00
2023-05-05T18:00:08.296Z,100049.94
2023-05-05T18:02:41.349Z,100042.59
2023-05-05T18:05:11.098Z,100040.47
2023-05-05T18:07:39.746Z,100047.34
2023-05-05T18:10:10.546Z,100050.00
2023-05-05T18:12:39.222Z,100051.19
2023-05-05T18:15:08.828Z,100054.09
2023-05-05T18:17:37.493Z,100063.47
2023-05-05T18:20:07.280Z,100057.66
2023-05-05T18:22:35.891Z,100059.28
2023-05-05T18:25:05.940Z,100060.94
2023-05-05T18:27:36.394Z,100058.22
2023-05-05T18:30:05.936Z,100061.13
2023-05-05T18:32:34.104Z,100066.84
2023-05-05T18:35:02.841Z,100073.25
2023-05-05T18:37:31.074Z,100068.81
2023-05-05T18:39:59.053Z,100078.59
2023-05-05T18:42:27.643Z,100073.25
2023-05-05T18:44:58.935Z,100082.28
2023-05-05T18:47:28.718Z,100077.34
2023-05-05T18:49:56.985Z,100078.44
2023-05-05T18:52:25.181Z,100083.25
2023-05-05T18:54:53.640Z,100078.50
2023-05-05T18:57:22.208Z,100081.03
2023-05-05T18:59:50.337Z,100093.88
2023-05-05T19:02:18.846Z,100091.87
2023-05-05T19:04:47.110Z,100096.84
2023-05-05T19:07:24.060Z,100091.94
2023-05-05T19:09:56.934Z,100097.41
2023-05-05T19:12:24.974Z,100099.00
2023-05-05T19:14:53.106Z,100094.44
2023-05-05T19:17:22.251Z,100095.00
2023-05-05T19:19:50.636Z,100102.44
2023-05-05T19:22:20.609Z,100097.56
2023-05-05T19:24:49.192Z,100094.31
2023-05-05T19:27:17.350Z,100098.25
2023-05-05T19:29:52.807Z,100096.81
2023-05-05T19:32:21.757Z,100097.50
2023-05-05T19:34:50.220Z,100098.19
2023-05-05T19:37:18.410Z,100104.72
2023-05-05T19:39:49.010Z,100097.81
2023-05-05T19:42:17.734Z,100086.38
2023-05-05T19:44:45.992Z,100098.88
2023-05-05T19:47:14.320Z,100098.34
2023-05-05T19:49:42.408Z,100090.03
2023-05-05T19:52:10.629Z,100092.66
2023-05-05T19:54:39.415Z,100090.84
2023-05-05T19:57:08.512Z,100100.84
2023-05-05T19:59:36.694Z,100091.34
2023-05-05T20:02:05.342Z,100088.75
2023-05-05T20:04:33.730Z,100084.94
2023-05-05T20:07:03.681Z,100095.09
2023-05-05T20:09:32.018Z,100100.84
2023-05-05T20:12:00.342Z,100096.56
2023-05-05T20:14:28.480Z,100088.75
2023-05-05T20:16:56.733Z,100087.94
2023-05-05T20:19:25.212Z,100093.69
2023-05-05T20:21:53.492Z,100094.16
2023-05-05T20:24:21.705Z,100093.00
2023-05-05T20:26:50.651Z,100098.25
2023-05-05T20:29:20.252Z,100083.19
2023-05-05T20:31:51.288Z,100089.41
2023-05-05T20:34:20.153Z,100086.62
2023-05-05T20:36:48.520Z,100082.69
2023-05-05T20:39:16.914Z,100087.31
2023-05-05T20:41:46.419Z,100080.59
2023-05-05T20:44:14.738Z,100083.06
2023-05-05T20:46:42.859Z,100079.62
2023-05-05T20:49:11.263Z,100069.00
2023-05-05T20:51:40.050Z,100077.31
2023-05-05T20:54:10.020Z,100080.78
2023-05-05T20:56:38.500Z,100083.56
2023-05-05T20:59:06.868Z,100077.13
2023-05-05T21:01:35.477Z,100079.75
2023-05-05T21:04:04.183Z,100070.06
2023-05-05T21:06:33.028Z,100073.50
2023-05-05T21:09:01.159Z,100070.06
2023-05-05T21:11:29.942Z,100072.50
2023-05-05T21:13:58.349Z,100080.34
2023-05-05T21:16:26.614Z,100076.59
2023-05-05T21:18:55.048Z,100080.87
2023-05-05T21:21:24.656Z,100077.91
2023-05-05T21:23:55.218Z,100077.91
2023-05-05T21:26:25.075Z,100073.97
2023-05-05T21:28:53.615Z,100080.00
2023-05-05T21:31:22.853Z,100071.97
2023-05-05T21:33:51.817Z,100072.50
2023-05-05T21:36:21.004Z,100074.75
2023-05-05T21:38:49.809Z,100070.34
2023-05-05T21:41:18.433Z,100057.69
2023-05-05T21:43:46.931Z,100053.94
2023-05-05T21:46:17.214Z,100057.22
2023-05-05T21:48:47.344Z,100052.44
2023-05-05T21:51:15.982Z,100047.69
2023-05-05T21:53:44.527Z,100048.50
2023-05-05T21:56:13.081Z,100044.41
2023-05-05T21:58:41.602Z,100055.91
2023-05-05T22:01:10.176Z,100049.97
2023-05-05T22:03:38.764Z,100044.84
2023-05-05T22:06:06.919Z,100053.87
2023-05-05T22:08:34.985Z,100053.87
2023-05-05T22:11:03.589Z,100047.13
2023-05-05T22:13:31.891Z,100061.00
2023-05-05T22:15:59.986Z,100056.97
2023-05-05T22:18:28.434Z,100065.28
2023-05-05T22:20:57.228Z,100065.13
2023-05-05T22:23:25.351Z,100066.25
2023-05-05T22:25:54.162Z,100064.47
2023-05-05T22:28:22.907Z,100059.25
2023-05-05T22:30:51.262Z,100050.37
2023-05-05T22:33:20.061Z,100058.50
2023-05-05T22:35:48.419Z,100056.50
2023-05-05T22:38:16.795Z,100058.19
2023-05-05T22:40:46.098Z,100055.47
2023-05-05T22:43:14.534Z,100053.03
2023-05-05T22:45:44.052Z,100065.59
2023-05-05T22:48:12.572Z,100066.12
2023-05-05T22:50:41.434Z,100064.81
2023-05-05T22:53:09.632Z,100065.50
2023-05-05T22:55:38.765Z,100061.41
2023-05-05T22:58:07.166Z,100065.28
2023-05-05T23:00:35.319Z,100056.97
2023-05-05T23:03:04.585Z,100056.50
2023-05-05T23:05:34.484Z,100062.12
2023-05-05T23:08:02.651Z,100058.94
2023-05-05T23:10:31.332Z,100050.69
2023-05-05T23:12:59.428Z,100052.25
2023-05-05T23:15:27.903Z,100049.94
2023-05-05T23:17:57.027Z,100058.94
2023-05-05T23:20:25.564Z,100057.19
2023-05-05T23:22:53.685Z,100049.41
2023-05-05T23:25:22.141Z,100052.19
2023-05-05T23:27:50.660Z,100052.56
2023-05-05T23:30:18.966Z,100055.47
2023-05-05T23:32:47.849Z,100058.25
2023-05-05T23:35:16.388Z,100060.50
2023-05-05T23:37:44.456Z,100065.31
2023-05-05T23:40:13.000Z,100066.38
2023-05-05T23:42:43.012Z,100066.16
2023-05-05T23:45:11.609Z,100068.41
2023-05-05T23:47:40.518Z,100063.84
2023-05-05T23:50:09.305Z,100069.06
2023-05-05T23:52:37.399Z,100072.13
2023-05-05T23:55:07.213Z,100055.81
2023-05-05T23:57:35.987Z,100060.87
